Главная страница
METAR-TAF:

METAR-TAF

Аэропорты :

Fort Resolution, Северо-Западные Территории, Канада

широта: 61-11N, долгота: 113-41W, высота над уровнем моря: 164 м

Текущие метеонаблюдения

Эта сводка был подготовлена 15 часа и 34 минут назад, в 22:00 UTC
Ветер 4 Узел от восточно-юго-восточный, изменяющийся между восточно-юго-восточный и южный
Температура -1°C
Влажность 74%
Давление 1027 hPa
Видимость: 24.1 км
небольшая облачность на высоте 2000 фута
Рассеянная облачность на высоте 27000 фута

METAR: CYFR 192200Z 12004KT 110V180 15SM FEW020 BKN270 M01/M05 A3034 RMK SC1CS6 SC TR /0/ LAST STFD OBS/NEXT221400Z SLP287

Время: 07:34 (13:34 UTC)


TAF: отсутствует

Метеонаблюдения и прогнозы для более 4000 аэропортов (сводки METAR и TAF).

Имеющиеся станции представлены на карте желтыми и красными точками.

Чтобы увидеть название станции, наведите на нее мышь.

Затем щелкните, чтобы увидеть метеонаблюдения и метеопрогнозы.

Управление картой: чтобы увеличить масштаб, щелкните зеленые кнопки с черным крестиком; чтобы уменьшить масштаб, щелкните зеленую кнопку с тире; для просмотра соседних карт щелкайте зеленые стрелки.


METAR-TAF: